createdAt,value
2018-12-13T00:00:28.883Z,84.17
2018-12-13T00:02:58.417Z,98.50
2018-12-13T00:05:28.006Z,95.53
2018-12-13T00:07:57.571Z,85.47
2018-12-13T00:10:27.377Z,81.20
2018-12-13T00:12:56.957Z,78.43
2018-12-13T00:15:30.595Z,77.23
2018-12-13T00:18:00.748Z,68.77
2018-12-13T00:20:30.358Z,61.80
2018-12-13T00:22:59.922Z,93.03
2018-12-13T00:25:29.422Z,84.80
2018-12-13T00:27:59.022Z,62.10
2018-12-13T00:30:28.584Z,57.30
2018-12-13T00:32:58.269Z,56.90
2018-12-13T00:35:27.886Z,59.87
2018-12-13T00:37:57.946Z,80.77
2018-12-13T00:40:27.586Z,88.00
2018-12-13T00:42:57.148Z,91.23
2018-12-13T00:45:26.744Z,84.63
2018-12-13T00:47:56.249Z,95.20
2018-12-13T00:50:25.930Z,95.23
2018-12-13T00:52:55.447Z,90.13
2018-12-13T00:55:24.970Z,85.93
2018-12-13T00:57:54.490Z,85.70
2018-12-13T01:00:24.242Z,84.20
2018-12-13T01:02:53.858Z,77.50
2018-12-13T01:05:26.364Z,73.70
2018-12-13T01:07:56.000Z,71.30
2018-12-13T01:10:25.597Z,73.43
2018-12-13T01:12:55.117Z,70.57
2018-12-13T01:15:26.717Z,70.47
2018-12-13T01:17:56.462Z,72.90
2018-12-13T01:20:25.929Z,70.63
2018-12-13T01:22:55.646Z,72.63
2018-12-13T01:25:25.285Z,73.37
2018-12-13T01:27:54.854Z,70.00
2018-12-13T01:30:24.382Z,64.87
2018-12-13T01:32:53.951Z,67.50
2018-12-13T01:35:23.596Z,72.00
2018-12-13T01:37:53.283Z,68.77
2018-12-13T01:40:22.943Z,68.30
2018-12-13T01:42:52.414Z,69.63
2018-12-13T01:45:22.120Z,72.83
2018-12-13T01:47:51.725Z,68.77
2018-12-13T01:50:21.291Z,71.27
2018-12-13T01:52:50.871Z,66.47
2018-12-13T01:55:20.527Z,64.27
2018-12-13T01:57:50.288Z,52.77
2018-12-13T02:00:19.885Z,54.40
2018-12-13T02:02:49.284Z,59.73
2018-12-13T02:05:18.834Z,61.53
2018-12-13T02:07:48.397Z,62.13
2018-12-13T02:10:18.038Z,66.60
2018-12-13T02:12:47.641Z,65.97
2018-12-13T02:15:17.908Z,53.00
2018-12-13T02:17:47.544Z,54.80
2018-12-13T02:20:17.270Z,62.50
2018-12-13T02:22:46.958Z,61.70
2018-12-13T02:25:16.778Z,61.37
2018-12-13T02:27:46.528Z,63.73
2018-12-13T02:30:18.826Z,71.60
2018-12-13T02:32:48.428Z,80.20
2018-12-13T02:35:17.888Z,77.90
2018-12-13T02:37:47.546Z,79.33
2018-12-13T02:40:17.082Z,73.77
2018-12-13T02:42:46.710Z,65.60
2018-12-13T02:45:16.167Z,71.40
2018-12-13T02:47:45.728Z,70.27
2018-12-13T02:50:15.269Z,71.23
2018-12-13T02:52:44.994Z,66.40
2018-12-13T02:55:14.729Z,68.03
2018-12-13T02:57:44.277Z,69.73
2018-12-13T03:00:13.852Z,69.73
2018-12-13T03:02:43.388Z,68.23
2018-12-13T03:05:13.328Z,65.90
2018-12-13T03:07:42.810Z,65.10
2018-12-13T03:10:12.531Z,65.87
2018-12-13T03:12:41.955Z,65.13
2018-12-13T03:15:12.618Z,63.70
2018-12-13T03:17:42.244Z,61.67
2018-12-13T03:20:11.875Z,60.57
2018-12-13T03:22:41.401Z,60.27
2018-12-13T03:25:11.139Z,58.57
2018-12-13T03:27:40.846Z,51.97
2018-12-13T03:30:10.580Z,60.83
2018-12-13T03:32:40.149Z,59.37
2018-12-13T03:35:09.878Z,53.07
2018-12-13T03:37:39.428Z,49.53
2018-12-13T03:40:08.973Z,48.33
2018-12-13T03:42:38.515Z,43.60
2018-12-13T03:45:08.825Z,39.63
2018-12-13T03:47:38.477Z,41.97
2018-12-13T03:50:08.063Z,35.27
2018-12-13T03:52:37.713Z,56.03
2018-12-13T03:55:07.379Z,60.70
2018-12-13T03:57:36.870Z,63.33
2018-12-13T04:00:07.524Z,66.97
2018-12-13T04:02:37.299Z,63.83
2018-12-13T04:05:07.044Z,59.60
2018-12-13T04:07:36.567Z,58.37
2018-12-13T04:10:06.061Z,57.17
2018-12-13T04:12:35.616Z,53.77
2018-12-13T04:15:05.573Z,54.07
2018-12-13T04:17:35.143Z,53.07
2018-12-13T04:20:05.102Z,51.10
2018-12-13T04:22:34.764Z,49.73
2018-12-13T04:25:04.773Z,48.20
2018-12-13T04:27:34.499Z,40.67
2018-12-13T04:30:04.228Z,48.43
2018-12-13T04:32:33.843Z,45.10
2018-12-13T04:35:03.307Z,41.63
2018-12-13T04:37:35.389Z,43.47
2018-12-13T04:40:05.092Z,43.03
2018-12-13T04:42:34.610Z,38.70
2018-12-13T04:45:04.545Z,39.93
2018-12-13T04:47:35.039Z,38.70
2018-12-13T04:50:04.901Z,37.90
2018-12-13T04:52:34.457Z,37.03
2018-12-13T04:55:04.002Z,36.50
2018-12-13T04:57:33.543Z,35.50
2018-12-13T05:00:03.081Z,37.23
2018-12-13T05:02:32.592Z,36.07
2018-12-13T05:05:02.072Z,36.73
2018-12-13T05:07:31.545Z,37.07
2018-12-13T05:10:01.037Z,37.53
2018-12-13T05:12:30.547Z,35.50
2018-12-13T05:15:00.071Z,35.07
2018-12-13T05:17:29.956Z,38.37
2018-12-13T05:19:59.433Z,36.87
2018-12-13T05:22:29.060Z,36.30
2018-12-13T05:24:58.511Z,36.23
2018-12-13T05:27:28.094Z,35.07
2018-12-13T05:29:57.718Z,35.60
2018-12-13T05:32:27.255Z,32.73
2018-12-13T05:34:56.782Z,34.83
2018-12-13T05:37:26.272Z,34.77
2018-12-13T05:39:55.836Z,32.23
2018-12-13T05:42:25.398Z,34.90
2018-12-13T05:44:54.930Z,33.27
2018-12-13T05:47:24.386Z,33.83
2018-12-13T05:49:53.956Z,34.47
2018-12-13T05:52:23.506Z,41.13
2018-12-13T05:54:53.992Z,49.57
2018-12-13T05:57:23.466Z,36.93
2018-12-13T05:59:53.058Z,34.30
2018-12-13T06:02:22.490Z,36.47
2018-12-13T06:04:52.085Z,35.90
2018-12-13T06:07:21.756Z,34.87
2018-12-13T06:09:51.362Z,36.83
2018-12-13T06:12:20.876Z,36.83
2018-12-13T06:14:50.418Z,42.27
2018-12-13T06:17:20.360Z,50.30
2018-12-13T06:19:49.861Z,43.60
2018-12-13T06:22:19.411Z,42.13
2018-12-13T06:24:49.103Z,40.23
2018-12-13T06:27:18.650Z,39.67
2018-12-13T06:29:48.979Z,39.33
2018-12-13T06:32:18.682Z,42.27
2018-12-13T06:34:48.194Z,43.33
2018-12-13T06:37:17.853Z,44.87
2018-12-13T06:39:47.304Z,48.47
2018-12-13T06:42:16.886Z,48.37
2018-12-13T06:44:46.379Z,49.47
2018-12-13T06:47:15.905Z,55.80
2018-12-13T06:49:45.617Z,53.90
2018-12-13T06:52:15.261Z,55.63
2018-12-13T06:54:44.922Z,50.80
2018-12-13T06:57:14.615Z,51.23
2018-12-13T06:59:44.123Z,41.70
2018-12-13T07:02:13.749Z,54.63
2018-12-13T07:04:43.393Z,49.77
2018-12-13T07:07:13.107Z,49.00
2018-12-13T07:09:42.694Z,54.13
2018-12-13T07:12:12.120Z,54.93
2018-12-13T07:14:42.524Z,54.77
2018-12-13T07:17:12.127Z,53.57
2018-12-13T07:19:41.719Z,55.20
2018-12-13T07:22:11.396Z,60.73
2018-12-13T07:24:40.859Z,46.70
2018-12-13T07:27:10.539Z,46.53
2018-12-13T07:29:40.040Z,47.20
2018-12-13T07:32:09.326Z,47.07
2018-12-13T07:34:39.034Z,47.83
2018-12-13T07:37:08.528Z,51.93
2018-12-13T07:39:37.969Z,51.63
2018-12-13T07:42:07.602Z,49.33
2018-12-13T07:44:37.234Z,49.67
2018-12-13T07:47:07.960Z,49.00
2018-12-13T07:49:37.550Z,51.03
2018-12-13T07:52:07.158Z,52.97
2018-12-13T07:54:36.785Z,47.87
2018-12-13T07:57:06.326Z,46.93
2018-12-13T07:59:35.962Z,45.43
2018-12-13T08:02:05.547Z,47.17
2018-12-13T08:04:35.182Z,47.50
2018-12-13T08:07:04.845Z,47.30
2018-12-13T08:09:34.461Z,45.77
2018-12-13T08:12:03.932Z,43.47
2018-12-13T08:14:33.525Z,41.67
2018-12-13T08:17:03.095Z,43.57
2018-12-13T08:19:32.711Z,43.93
2018-12-13T08:22:03.317Z,43.73
2018-12-13T08:24:32.870Z,45.80
2018-12-13T08:27:02.418Z,42.50
2018-12-13T08:29:31.897Z,43.67
2018-12-13T08:32:02.280Z,43.80
2018-12-13T08:34:31.950Z,45.23
2018-12-13T08:37:01.396Z,43.37
2018-12-13T08:39:30.976Z,46.77
2018-12-13T08:42:00.485Z,44.83
2018-12-13T08:44:30.187Z,45.00
2018-12-13T08:46:59.883Z,42.57
2018-12-13T08:49:29.601Z,44.07
2018-12-13T08:51:59.325Z,43.70
2018-12-13T08:54:28.984Z,42.77
2018-12-13T08:56:58.756Z,42.00
2018-12-13T08:59:28.410Z,43.37
2018-12-13T09:01:58.056Z,44.50
2018-12-13T09:04:27.730Z,42.17
2018-12-13T09:06:57.379Z,43.20
2018-12-13T09:09:26.916Z,43.07
2018-12-13T09:11:56.674Z,42.90
2018-12-13T09:14:26.438Z,44.17
2018-12-13T09:16:56.103Z,45.27
2018-12-13T09:19:25.789Z,43.70
2018-12-13T09:21:55.584Z,43.50
2018-12-13T09:24:25.398Z,44.07
2018-12-13T09:26:55.151Z,45.07
2018-12-13T09:29:24.857Z,44.77
2018-12-13T09:31:54.835Z,54.40
2018-12-13T09:34:25.218Z,57.10
2018-12-13T09:36:54.943Z,57.30
2018-12-13T09:39:24.812Z,50.50
2018-12-13T09:41:54.492Z,49.80
2018-12-13T09:44:24.542Z,48.07
2018-12-13T09:46:54.149Z,48.37
2018-12-13T09:49:23.845Z,69.70
2018-12-13T09:51:53.532Z,49.67
2018-12-13T09:54:23.074Z,49.63
2018-12-13T09:56:52.735Z,52.07
2018-12-13T09:59:22.468Z,51.70
2018-12-13T10:01:52.107Z,49.60
2018-12-13T10:04:21.702Z,48.47
2018-12-13T10:06:51.590Z,49.70
2018-12-13T10:09:21.291Z,48.40
2018-12-13T10:11:52.264Z,51.80
2018-12-13T10:14:22.033Z,52.43
2018-12-13T10:16:51.678Z,49.83
2018-12-13T10:19:21.346Z,50.60
2018-12-13T10:21:51.110Z,50.47
2018-12-13T10:24:20.774Z,50.73
2018-12-13T10:26:50.461Z,47.90
2018-12-13T10:29:20.203Z,56.07
2018-12-13T10:31:50.527Z,57.27
2018-12-13T10:34:20.206Z,56.07
2018-12-13T10:36:49.944Z,48.50
2018-12-13T10:39:19.642Z,48.07
2018-12-13T10:41:49.287Z,47.27
2018-12-13T10:44:23.043Z,43.60
2018-12-13T10:46:54.077Z,45.87
2018-12-13T10:49:23.961Z,46.93
2018-12-13T10:51:53.719Z,46.43
2018-12-13T10:54:23.257Z,49.30
2018-12-13T10:56:53.300Z,49.50
2018-12-13T10:59:23.051Z,49.43
2018-12-13T11:01:57.607Z,48.97
2018-12-13T11:04:27.299Z,50.23
2018-12-13T11:06:57.223Z,52.23
2018-12-13T11:09:27.604Z,48.90
2018-12-13T11:11:57.281Z,48.53
2018-12-13T11:14:26.924Z,45.70
2018-12-13T11:16:56.867Z,45.77
2018-12-13T11:19:26.648Z,47.83
2018-12-13T11:21:56.255Z,45.23
2018-12-13T11:24:25.902Z,44.40
2018-12-13T11:27:03.638Z,39.40
2018-12-13T11:29:44.165Z,42.40
2018-12-13T11:32:14.086Z,41.77
2018-12-13T11:34:43.796Z,45.77
2018-12-13T11:37:13.525Z,44.50
2018-12-13T11:39:44.024Z,52.73
2018-12-13T11:42:14.023Z,52.80
2018-12-13T11:44:44.527Z,47.87
2018-12-13T11:47:14.262Z,48.27
2018-12-13T11:49:43.925Z,50.27
2018-12-13T11:52:14.491Z,45.83
2018-12-13T11:54:45.459Z,44.73
2018-12-13T11:57:16.181Z,41.37
2018-12-13T11:59:45.839Z,40.80
2018-12-13T12:02:16.148Z,40.73
2018-12-13T12:04:45.820Z,40.73
2018-12-13T12:07:15.809Z,41.63
2018-12-13T12:09:45.634Z,41.23
2018-12-13T12:12:15.356Z,44.27
2018-12-13T12:14:46.039Z,42.20
2018-12-13T12:17:15.846Z,45.17
2018-12-13T12:19:46.540Z,42.10
2018-12-13T12:22:16.315Z,34.73
2018-12-13T12:24:46.075Z,32.77
2018-12-13T12:27:16.038Z,27.60
2018-12-13T12:29:45.919Z,28.07
2018-12-13T12:32:16.728Z,29.57
2018-12-13T12:34:46.550Z,29.57
2018-12-13T12:37:16.355Z,27.70
2018-12-13T12:39:46.177Z,28.87
2018-12-13T12:42:15.830Z,27.10
2018-12-13T12:44:45.627Z,26.57
2018-12-13T12:47:15.596Z,27.60
2018-12-13T12:49:45.224Z,28.37
2018-12-13T12:52:14.961Z,29.13
2018-12-13T12:54:44.622Z,25.97
2018-12-13T12:57:14.250Z,23.70
2018-12-13T12:59:48.911Z,26.03
2018-12-13T13:02:18.616Z,26.93
2018-12-13T13:04:48.368Z,26.07
2018-12-13T13:07:18.442Z,26.63
2018-12-13T13:09:48.515Z,26.10
2018-12-13T13:12:18.176Z,24.60
2018-12-13T13:14:47.751Z,22.50
2018-12-13T13:17:17.278Z,21.67
2018-12-13T13:19:47.147Z,20.33
2018-12-13T13:22:16.897Z,19.93
2018-12-13T13:24:46.569Z,25.70
2018-12-13T13:27:16.969Z,29.07
2018-12-13T13:29:46.558Z,26.57
2018-12-13T13:32:16.345Z,22.60
2018-12-13T13:34:46.142Z,23.27
2018-12-13T13:37:15.804Z,24.07
2018-12-13T13:39:45.422Z,22.77
2018-12-13T13:42:15.092Z,19.30
2018-12-13T13:44:45.043Z,21.10
2018-12-13T13:47:14.922Z,20.77
2018-12-13T13:49:44.682Z,20.30
2018-12-13T13:52:14.377Z,21.30
2018-12-13T13:54:44.076Z,23.40
2018-12-13T13:57:13.744Z,23.73
2018-12-13T13:59:43.624Z,26.67
2018-12-13T14:02:13.592Z,29.87
2018-12-13T14:04:43.342Z,36.40
2018-12-13T14:07:13.659Z,36.03
2018-12-13T14:09:43.217Z,34.30
2018-12-13T14:12:12.980Z,33.10
2018-12-13T14:14:42.703Z,35.23
2018-12-13T14:17:12.605Z,49.60
2018-12-13T14:19:42.291Z,32.53
2018-12-13T14:22:11.970Z,34.47
2018-12-13T14:24:42.408Z,40.00
2018-12-13T14:27:12.325Z,36.70
2018-12-13T14:29:42.055Z,37.10
2018-12-13T14:32:11.650Z,34.73
2018-12-13T14:34:41.493Z,35.87
2018-12-13T14:37:11.347Z,34.33
2018-12-13T14:39:44.328Z,35.80
2018-12-13T14:42:13.045Z,34.13
2018-12-13T14:44:42.868Z,34.03
2018-12-13T14:47:12.417Z,33.57
2018-12-13T14:49:42.051Z,33.70
2018-12-13T14:52:12.004Z,35.47
2018-12-13T14:54:41.699Z,32.90
2018-12-13T14:57:11.330Z,33.10
2018-12-13T14:59:46.951Z,33.43
2018-12-13T15:02:12.790Z,36.17
2018-12-13T15:04:43.163Z,34.97
2018-12-13T15:07:12.995Z,33.00
2018-12-13T15:09:42.702Z,33.23
2018-12-13T15:12:14.704Z,34.27
2018-12-13T15:14:44.273Z,36.73
2018-12-13T15:17:14.107Z,36.90
2018-12-13T15:19:43.846Z,33.63
2018-12-13T15:22:13.715Z,33.97
2018-12-13T15:24:43.322Z,35.70
2018-12-13T15:27:13.061Z,38.87
2018-12-13T15:29:42.810Z,39.17
2018-12-13T15:32:13.444Z,36.47
2018-12-13T15:34:43.179Z,38.40
2018-12-13T15:37:12.845Z,39.03
2018-12-13T15:39:42.601Z,43.97
2018-12-13T15:42:12.523Z,43.97
2018-12-13T15:44:44.761Z,43.37
2018-12-13T15:47:14.384Z,43.33
2018-12-13T15:49:44.294Z,46.00
2018-12-13T15:52:14.014Z,47.30
2018-12-13T15:54:44.024Z,49.60
2018-12-13T15:57:13.825Z,49.17
2018-12-13T15:59:43.601Z,49.93
2018-12-13T16:02:13.461Z,51.07
2018-12-13T16:04:44.195Z,49.80
2018-12-13T16:07:14.074Z,49.50
2018-12-13T16:09:43.793Z,48.60
2018-12-13T16:12:13.571Z,52.53
2018-12-13T16:14:43.522Z,52.70
2018-12-13T16:17:13.255Z,52.00
2018-12-13T16:19:43.172Z,52.47
2018-12-13T16:22:13.011Z,51.97
2018-12-13T16:24:42.793Z,53.43
2018-12-13T16:27:13.086Z,51.10
2018-12-13T16:29:43.478Z,50.87
2018-12-13T16:32:13.200Z,49.17
2018-12-13T16:34:43.137Z,48.87
2018-12-13T16:37:13.026Z,50.70
2018-12-13T16:39:42.901Z,50.30
2018-12-13T16:42:12.681Z,52.83
2018-12-13T16:44:42.816Z,49.97
2018-12-13T16:47:12.327Z,53.33
2018-12-13T16:49:42.183Z,51.73
2018-12-13T16:52:12.024Z,47.87
2018-12-13T16:54:41.891Z,50.70
2018-12-13T16:57:11.794Z,48.30
2018-12-13T16:59:41.486Z,48.73
2018-12-13T17:02:12.247Z,57.97
2018-12-13T17:04:42.000Z,55.53
2018-12-13T17:07:11.772Z,48.03
2018-12-13T17:09:41.575Z,48.73
2018-12-13T17:12:11.259Z,47.17
2018-12-13T17:14:41.179Z,46.00
2018-12-13T17:17:10.977Z,43.33
2018-12-13T17:19:40.936Z,48.77
2018-12-13T17:22:10.805Z,48.60
2018-12-13T17:24:40.649Z,48.77
2018-12-13T17:27:10.412Z,51.30
2018-12-13T17:29:40.262Z,51.33
2018-12-13T17:32:10.039Z,58.37
2018-12-13T17:34:39.893Z,58.73
2018-12-13T17:37:09.521Z,67.03
2018-12-13T17:39:39.324Z,78.10
2018-12-13T17:42:09.128Z,90.97
2018-12-13T17:44:38.931Z,95.50
2018-12-13T17:47:09.635Z,78.30
2018-12-13T17:49:39.447Z,83.03
2018-12-13T17:52:09.412Z,78.70
2018-12-13T17:54:39.171Z,63.63
2018-12-13T17:57:09.065Z,67.33
2018-12-13T17:59:38.903Z,75.97
2018-12-13T18:02:08.804Z,78.57
2018-12-13T18:04:38.928Z,81.67
2018-12-13T18:07:08.559Z,78.20
2018-12-13T18:09:38.681Z,76.93
2018-12-13T18:12:08.617Z,79.57
2018-12-13T18:14:39.139Z,82.27
2018-12-13T18:18:12.585Z,74.80
2018-12-13T18:20:42.448Z,78.63
2018-12-13T18:23:12.257Z,74.50
2018-12-13T18:25:42.271Z,74.20
2018-12-13T18:28:12.094Z,76.00
2018-12-13T18:30:43.032Z,76.03
2018-12-13T18:33:13.240Z,90.17
2018-12-13T18:35:43.416Z,105.77
2018-12-13T18:38:13.091Z,102.77
2018-12-13T18:40:42.764Z,97.30
2018-12-13T18:43:12.625Z,102.00
2018-12-13T18:45:42.410Z,106.73
2018-12-13T18:48:12.078Z,99.93
2018-12-13T18:50:41.974Z,94.87
2018-12-13T18:53:11.849Z,88.83
2018-12-13T18:55:41.905Z,93.83
2018-12-13T18:58:11.713Z,86.30
2018-12-13T19:00:41.585Z,92.63
2018-12-13T19:03:11.853Z,91.23
2018-12-13T19:05:41.743Z,81.50
2018-12-13T19:08:11.639Z,85.87
2018-12-13T19:10:41.977Z,84.60
2018-12-13T19:13:12.019Z,82.03
2018-12-13T19:15:41.990Z,81.40
2018-12-13T19:18:11.802Z,98.03
2018-12-13T19:20:41.702Z,96.70
2018-12-13T19:23:11.611Z,90.57
2018-12-13T19:25:41.523Z,86.00
2018-12-13T19:28:11.226Z,87.60
2018-12-13T19:30:40.982Z,84.20
2018-12-13T19:33:11.123Z,88.00
2018-12-13T19:35:41.260Z,86.17
2018-12-13T19:38:11.338Z,82.37
2018-12-13T19:40:41.000Z,94.53
2018-12-13T19:43:10.602Z,86.63
2018-12-13T19:45:40.130Z,82.07
2018-12-13T19:48:09.897Z,80.43
2018-12-13T19:50:40.145Z,81.57
2018-12-13T19:53:10.182Z,83.70
2018-12-13T19:55:40.412Z,83.40
2018-12-13T19:58:10.360Z,83.07
2018-12-13T20:00:40.100Z,89.70
2018-12-13T20:03:09.855Z,86.00
2018-12-13T20:05:39.489Z,85.67
2018-12-13T20:08:09.439Z,90.60
2018-12-13T20:10:39.249Z,92.00
2018-12-13T20:13:09.057Z,90.90
2018-12-13T20:15:38.864Z,93.70
2018-12-13T20:18:09.706Z,90.67
2018-12-13T20:20:39.475Z,92.00
2018-12-13T20:23:09.171Z,97.37
2018-12-13T20:25:38.703Z,98.90
2018-12-13T20:28:08.681Z,95.83
2018-12-13T20:30:38.310Z,92.33
2018-12-13T20:33:07.921Z,84.23
2018-12-13T20:35:37.710Z,84.17
2018-12-13T20:38:07.492Z,91.87
2018-12-13T20:40:37.778Z,86.77
2018-12-13T20:43:07.576Z,83.27
2018-12-13T20:45:37.923Z,77.53
2018-12-13T20:48:08.688Z,83.10
2018-12-13T20:50:38.672Z,83.47
2018-12-13T20:53:08.613Z,83.90
2018-12-13T20:55:38.420Z,82.10
2018-12-13T20:58:08.038Z,80.37
2018-12-13T21:00:37.801Z,82.40
2018-12-13T21:03:07.661Z,82.27
2018-12-13T21:05:38.454Z,80.23
2018-12-13T21:08:10.228Z,83.87
2018-12-13T21:10:40.588Z,80.00
2018-12-13T21:13:10.492Z,80.53
2018-12-13T21:15:40.460Z,81.67
2018-12-13T21:18:10.309Z,89.63
2018-12-13T21:20:39.945Z,96.77
2018-12-13T21:23:09.704Z,96.83
2018-12-13T21:25:39.450Z,102.03
2018-12-13T21:28:09.217Z,104.63
2018-12-13T21:30:38.916Z,96.60
2018-12-13T21:33:08.760Z,97.77
2018-12-13T21:35:38.503Z,95.80
2018-12-13T21:38:08.287Z,95.93
2018-12-13T21:40:38.318Z,94.30
2018-12-13T21:43:08.154Z,89.23
2018-12-13T21:45:37.853Z,83.07
2018-12-13T21:48:07.494Z,76.73
2018-12-13T21:50:37.451Z,78.90
2018-12-13T21:53:07.203Z,75.93
2018-12-13T21:55:37.091Z,75.53
2018-12-13T21:58:06.745Z,77.73
2018-12-13T22:00:36.602Z,75.50
2018-12-13T22:03:06.448Z,80.67
2018-12-13T22:05:36.012Z,80.33
2018-12-13T22:08:06.606Z,81.13
2018-12-13T22:10:36.438Z,78.63
2018-12-13T22:13:06.130Z,77.37
2018-12-13T22:15:35.974Z,79.67
2018-12-13T22:18:05.888Z,80.43
2018-12-13T22:20:35.879Z,79.20
2018-12-13T22:23:05.722Z,75.37
2018-12-13T22:25:35.379Z,77.13
2018-12-13T22:28:05.038Z,82.80
2018-12-13T22:30:34.976Z,76.20
2018-12-13T22:33:04.918Z,78.17
2018-12-13T22:35:35.132Z,75.63
2018-12-13T22:38:04.619Z,76.07
2018-12-13T22:40:34.204Z,73.43
2018-12-13T22:43:04.163Z,77.27
2018-12-13T22:45:34.843Z,84.53
2018-12-13T22:48:04.772Z,77.90
2018-12-13T22:50:34.625Z,74.07
2018-12-13T22:53:04.391Z,74.83
2018-12-13T22:55:34.040Z,74.30
2018-12-13T22:58:03.854Z,76.27
2018-12-13T23:00:33.691Z,81.67
2018-12-13T23:03:04.764Z,85.03
2018-12-13T23:05:34.958Z,76.57
2018-12-13T23:08:04.997Z,72.73
2018-12-13T23:10:34.853Z,74.33
2018-12-13T23:13:04.739Z,75.93
2018-12-13T23:15:35.041Z,74.83
2018-12-13T23:18:04.626Z,74.03
2018-12-13T23:20:34.261Z,77.70
2018-12-13T23:23:04.023Z,77.03
2018-12-13T23:25:33.831Z,75.80
2018-12-13T23:28:03.365Z,74.63
2018-12-13T23:30:33.076Z,72.67
2018-12-13T23:33:02.777Z,73.13
2018-12-13T23:35:32.695Z,76.20
2018-12-13T23:38:02.598Z,75.33
2018-12-13T23:40:32.680Z,75.17
2018-12-13T23:43:02.533Z,70.30
2018-12-13T23:45:32.224Z,64.43
2018-12-13T23:48:02.175Z,67.43
2018-12-13T23:50:31.853Z,70.67
2018-12-13T23:53:01.447Z,70.47
2018-12-13T23:55:31.063Z,65.70
2018-12-13T23:58:00.775Z,57.73
